LFLN/SYT METAR and TAF weather

Enter ICAO airport designator
Station Type Date Time Source
LFLN METAR 2020/01/24 03:00 UTC NOAA

LFLN 240300Z AUTO 06003KT 5000 BR NSC M02/M03 Q1023


Station Type Date Time Source
LFLN Decoded METAR 2020/01/24 03:00 UTC NOAA

Saint-Yan, France (LFLN) 46-25N 004-01E 244M
Jan 23, 2020 - 10:00 PM EST / 2020.01.24 0300 UTC
Wind: from the ENE (060 degrees) at 3 MPH (3 KT):0
Visibility: 3 mile(s):0
Weather: mist
Temperature: 28 F (-2 C)
Dew Point: 26 F (-3 C)
Relative Humidity: 92%
Pressure (altimeter): 30.21 in. Hg (1023 hPa)
ob: LFLN 240300Z AUTO 06003KT 5000 BR NSC M02/M03 Q1023
cycle: 3

Station Type Date Time Source
LFLN TAF UTC NOAA

Error!

Example: see airport list